TimeCST,TemperatureF,Dew PointF,Humidity,Sea Level PressureIn,VisibilityMPH,Wind Direction,Wind SpeedMPH,Gust SpeedMPH,PrecipitationIn,Events,Conditions,WindDirDegrees,DateUTC
12:53 AM,51.1,39.9,66,29.87,10.0,South,13.8,23.0,N/A,,Clear,170,2012-11-22 06:53:00
1:53 AM,51.1,39.0,63,29.84,10.0,South,15.0,-,N/A,,Clear,180,2012-11-22 07:53:00
2:53 AM,50.0,39.0,66,29.83,10.0,South,13.8,21.9,N/A,,Clear,170,2012-11-22 08:53:00
3:53 AM,50.0,39.0,66,29.80,10.0,South,15.0,-,N/A,,Clear,170,2012-11-22 09:53:00
4:53 AM,50.0,39.0,66,29.79,10.0,South,11.5,-,N/A,,Clear,180,2012-11-22 10:53:00
5:53 AM,48.9,39.0,69,29.78,10.0,South,10.4,-,N/A,,Clear,170,2012-11-22 11:53:00
6:53 AM,48.0,39.0,71,29.76,10.0,South,11.5,-,N/A,,Clear,170,2012-11-22 12:53:00
7:53 AM,48.0,39.0,71,29.77,10.0,South,11.5,-,N/A,,Clear,180,2012-11-22 13:53:00
8:53 AM,55.0,42.1,62,29.76,10.0,South,16.1,23.0,N/A,,Clear,190,2012-11-22 14:53:00
9:53 AM,57.0,43.0,59,29.74,10.0,SSW,16.1,25.3,N/A,,Clear,200,2012-11-22 15:53:00
10:53 AM,60.1,46.0,60,29.73,10.0,SSW,18.4,27.6,N/A,,Clear,210,2012-11-22 16:53:00
11:53 AM,64.0,48.0,56,29.71,10.0,WSW,18.4,33.4,N/A,,Clear,240,2012-11-22 17:53:00
12:53 PM,63.0,48.0,58,29.70,10.0,SW,18.4,-,N/A,,Clear,220,2012-11-22 18:53:00
1:53 PM,64.0,46.9,54,29.72,10.0,WSW,21.9,28.8,N/A,,Clear,250,2012-11-22 19:53:00
2:53 PM,64.0,39.0,40,29.75,10.0,WNW,24.2,33.4,N/A,,Clear,290,2012-11-22 20:53:00
3:53 PM,55.9,39.0,53,29.82,10.0,NW,28.8,36.8,N/A,,Clear,310,2012-11-22 21:53:00
4:53 PM,48.0,37.0,66,29.90,10.0,NW,26.5,31.1,N/A,,Clear,310,2012-11-22 22:53:00
5:53 PM,45.0,35.1,68,29.96,10.0,NW,18.4,-,N/A,,Scattered Clouds,310,2012-11-22 23:53:00
6:53 PM,42.1,33.1,70,30.03,10.0,NW,29.9,40.3,N/A,,Mostly Cloudy,310,2012-11-23 00:53:00
7:53 PM,41.0,32.0,70,30.03,10.0,WNW,21.9,28.8,N/A,,Mostly Cloudy,300,2012-11-23 01:53:00
8:23 PM,41.0,32.0,70,30.03,10.0,WNW,17.3,26.5,N/A,,Scattered Clouds,300,2012-11-23 02:23:00
8:53 PM,41.0,30.9,67,30.05,10.0,WNW,24.2,34.5,N/A,,Clear,300,2012-11-23 02:53:00
9:53 PM,39.9,30.0,68,30.06,10.0,WNW,24.2,33.4,N/A,,Scattered Clouds,290,2012-11-23 03:53:00
10:53 PM,37.9,27.0,65,30.06,10.0,WNW,17.3,24.2,N/A,,Clear,290,2012-11-23 04:53:00
11:53 PM,35.1,26.1,70,30.08,10.0,West,17.3,25.3,N/A,,Clear,280,2012-11-23 05:53:00